sensor_id;sensor_type;location;lat;lon;timestamp;P1;durP1;ratioP1;P2;durP2;ratioP2
65045;SDS011;54657;52.022;5.534;2023-05-07T00:01:47;5.32;;;4.32;;
65045;SDS011;54657;52.022;5.534;2023-05-07T00:04:13;4.97;;;4.35;;
65045;SDS011;54657;52.022;5.534;2023-05-07T00:06:39;4.50;;;4.10;;
65045;SDS011;54657;52.022;5.534;2023-05-07T00:09:04;5.85;;;4.53;;
65045;SDS011;54657;52.022;5.534;2023-05-07T00:11:30;5.70;;;4.80;;
65045;SDS011;54657;52.022;5.534;2023-05-07T00:13:56;5.28;;;4.85;;
65045;SDS011;54657;52.022;5.534;2023-05-07T00:16:22;7.93;;;5.07;;
65045;SDS011;54657;52.022;5.534;2023-05-07T00:18:47;5.15;;;4.65;;
65045;SDS011;54657;52.022;5.534;2023-05-07T00:21:13;7.35;;;5.13;;
65045;SDS011;54657;52.022;5.534;2023-05-07T00:23:39;5.70;;;5.20;;
65045;SDS011;54657;52.022;5.534;2023-05-07T00:26:04;5.28;;;4.75;;
65045;SDS011;54657;52.022;5.534;2023-05-07T00:28:30;12.15;;;5.40;;
65045;SDS011;54657;52.022;5.534;2023-05-07T00:30:55;5.28;;;4.80;;
65045;SDS011;54657;52.022;5.534;2023-05-07T00:33:21;6.35;;;5.00;;
65045;SDS011;54657;52.022;5.534;2023-05-07T00:35:47;7.13;;;5.35;;
65045;SDS011;54657;52.022;5.534;2023-05-07T00:38:13;5.20;;;4.70;;
65045;SDS011;54657;52.022;5.534;2023-05-07T00:40:38;7.28;;;5.13;;
65045;SDS011;54657;52.022;5.534;2023-05-07T00:43:04;6.20;;;5.00;;
65045;SDS011;54657;52.022;5.534;2023-05-07T00:45:30;6.30;;;5.15;;
65045;SDS011;54657;52.022;5.534;2023-05-07T00:47:55;6.05;;;5.03;;
65045;SDS011;54657;52.022;5.534;2023-05-07T00:50:23;6.38;;;5.32;;
65045;SDS011;54657;52.022;5.534;2023-05-07T00:52:49;6.00;;;5.32;;
65045;SDS011;54657;52.022;5.534;2023-05-07T00:55:15;6.68;;;5.63;;
65045;SDS011;54657;52.022;5.534;2023-05-07T00:57:41;6.82;;;6.13;;
65045;SDS011;54657;52.022;5.534;2023-05-07T01:00:07;8.00;;;6.22;;
65045;SDS011;54657;52.022;5.534;2023-05-07T01:02:34;7.97;;;6.13;;
65045;SDS011;54657;52.022;5.534;2023-05-07T01:05:00;6.10;;;5.57;;
65045;SDS011;54657;52.022;5.534;2023-05-07T01:07:28;8.35;;;5.18;;
65045;SDS011;54657;52.022;5.534;2023-05-07T01:09:54;6.15;;;5.30;;
65045;SDS011;54657;52.022;5.534;2023-05-07T01:12:20;6.47;;;5.80;;
65045;SDS011;54657;52.022;5.534;2023-05-07T01:14:46;6.10;;;5.50;;
65045;SDS011;54657;52.022;5.534;2023-05-07T01:17:13;6.40;;;5.80;;
65045;SDS011;54657;52.022;5.534;2023-05-07T01:19:39;8.50;;;6.35;;
65045;SDS011;54657;52.022;5.534;2023-05-07T01:22:09;6.88;;;6.18;;
65045;SDS011;54657;52.022;5.534;2023-05-07T01:24:36;6.38;;;5.78;;
65045;SDS011;54657;52.022;5.534;2023-05-07T01:27:02;7.97;;;6.00;;
65045;SDS011;54657;52.022;5.534;2023-05-07T01:29:28;7.07;;;6.38;;
65045;SDS011;54657;52.022;5.534;2023-05-07T01:31:54;7.45;;;6.25;;
65045;SDS011;54657;52.022;5.534;2023-05-07T01:34:25;7.80;;;6.72;;
65045;SDS011;54657;52.022;5.534;2023-05-07T01:36:53;8.35;;;6.25;;
65045;SDS011;54657;52.022;5.534;2023-05-07T01:39:20;7.43;;;6.63;;
65045;SDS011;54657;52.022;5.534;2023-05-07T01:41:48;6.90;;;6.20;;
65045;SDS011;54657;52.022;5.534;2023-05-07T01:44:14;7.13;;;6.50;;
65045;SDS011;54657;52.022;5.534;2023-05-07T01:46:41;8.30;;;6.82;;
65045;SDS011;54657;52.022;5.534;2023-05-07T01:49:07;7.38;;;6.53;;
65045;SDS011;54657;52.022;5.534;2023-05-07T01:51:33;9.82;;;7.15;;
65045;SDS011;54657;52.022;5.534;2023-05-07T01:53:59;7.55;;;6.75;;
65045;SDS011;54657;52.022;5.534;2023-05-07T01:56:25;7.15;;;6.45;;
65045;SDS011;54657;52.022;5.534;2023-05-07T01:58:50;7.20;;;5.72;;
65045;SDS011;54657;52.022;5.534;2023-05-07T02:01:16;6.88;;;6.03;;
65045;SDS011;54657;52.022;5.534;2023-05-07T02:03:42;6.35;;;5.75;;
65045;SDS011;54657;52.022;5.534;2023-05-07T02:06:08;7.22;;;6.50;;
65045;SDS011;54657;52.022;5.534;2023-05-07T02:08:34;8.70;;;6.63;;
65045;SDS011;54657;52.022;5.534;2023-05-07T02:11:00;7.15;;;6.03;;
65045;SDS011;54657;52.022;5.534;2023-05-07T02:13:28;7.43;;;6.72;;
65045;SDS011;54657;52.022;5.534;2023-05-07T02:15:54;7.13;;;6.40;;
65045;SDS011;54657;52.022;5.534;2023-05-07T02:18:20;8.43;;;7.10;;
65045;SDS011;54657;52.022;5.534;2023-05-07T02:20:45;8.23;;;7.43;;
65045;SDS011;54657;52.022;5.534;2023-05-07T02:23:11;7.53;;;6.80;;
65045;SDS011;54657;52.022;5.534;2023-05-07T02:25:36;7.95;;;7.13;;
65045;SDS011;54657;52.022;5.534;2023-05-07T02:28:03;9.27;;;7.35;;
65045;SDS011;54657;52.022;5.534;2023-05-07T02:30:28;8.75;;;6.93;;
65045;SDS011;54657;52.022;5.534;2023-05-07T02:32:54;8.43;;;6.85;;
65045;SDS011;54657;52.022;5.534;2023-05-07T02:35:19;7.72;;;6.93;;
65045;SDS011;54657;52.022;5.534;2023-05-07T02:37:45;8.40;;;7.50;;
65045;SDS011;54657;52.022;5.534;2023-05-07T02:40:11;8.55;;;7.75;;
65045;SDS011;54657;52.022;5.534;2023-05-07T02:42:37;8.38;;;7.50;;
65045;SDS011;54657;52.022;5.534;2023-05-07T02:45:02;10.27;;;7.65;;
65045;SDS011;54657;52.022;5.534;2023-05-07T02:47:28;10.30;;;7.65;;
65045;SDS011;54657;52.022;5.534;2023-05-07T02:49:54;9.82;;;7.78;;
65045;SDS011;54657;52.022;5.534;2023-05-07T02:52:20;9.05;;;7.72;;
65045;SDS011;54657;52.022;5.534;2023-05-07T02:54:46;8.15;;;7.35;;
65045;SDS011;54657;52.022;5.534;2023-05-07T02:57:11;9.05;;;8.07;;
65045;SDS011;54657;52.022;5.534;2023-05-07T02:59:37;9.43;;;8.50;;
65045;SDS011;54657;52.022;5.534;2023-05-07T03:02:02;10.10;;;8.82;;
65045;SDS011;54657;52.022;5.534;2023-05-07T03:04:28;9.77;;;7.97;;
65045;SDS011;54657;52.022;5.534;2023-05-07T03:06:53;9.85;;;8.10;;
65045;SDS011;54657;52.022;5.534;2023-05-07T03:09:19;9.02;;;8.13;;
65045;SDS011;54657;52.022;5.534;2023-05-07T03:11:45;9.27;;;8.30;;
65045;SDS011;54657;52.022;5.534;2023-05-07T03:14:11;9.82;;;8.93;;
65045;SDS011;54657;52.022;5.534;2023-05-07T03:16:37;11.48;;;9.07;;
65045;SDS011;54657;52.022;5.534;2023-05-07T03:19:03;10.13;;;8.98;;
65045;SDS011;54657;52.022;5.534;2023-05-07T03:21:28;9.90;;;8.48;;
65045;SDS011;54657;52.022;5.534;2023-05-07T03:23:54;10.23;;;8.88;;
65045;SDS011;54657;52.022;5.534;2023-05-07T03:26:20;10.00;;;9.00;;
65045;SDS011;54657;52.022;5.534;2023-05-07T03:28:46;9.15;;;8.30;;
65045;SDS011;54657;52.022;5.534;2023-05-07T03:31:11;9.35;;;8.45;;
65045;SDS011;54657;52.022;5.534;2023-05-07T03:33:38;10.45;;;9.43;;
65045;SDS011;54657;52.022;5.534;2023-05-07T03:36:21;9.63;;;8.73;;
65045;SDS011;54657;52.022;5.534;2023-05-07T03:38:47;9.95;;;8.95;;
65045;SDS011;54657;52.022;5.534;2023-05-07T03:41:14;10.07;;;9.07;;
65045;SDS011;54657;52.022;5.534;2023-05-07T03:43:39;9.73;;;8.73;;
65045;SDS011;54657;52.022;5.534;2023-05-07T03:46:05;11.63;;;9.10;;
65045;SDS011;54657;52.022;5.534;2023-05-07T03:48:30;12.10;;;9.95;;
65045;SDS011;54657;52.022;5.534;2023-05-07T03:50:59;11.80;;;9.77;;
65045;SDS011;54657;52.022;5.534;2023-05-07T03:53:25;10.30;;;9.32;;
65045;SDS011;54657;52.022;5.534;2023-05-07T03:55:50;10.48;;;9.35;;
65045;SDS011;54657;52.022;5.534;2023-05-07T03:58:16;11.10;;;10.00;;
65045;SDS011;54657;52.022;5.534;2023-05-07T04:00:41;11.18;;;9.98;;
65045;SDS011;54657;52.022;5.534;2023-05-07T04:03:07;10.52;;;9.38;;
65045;SDS011;54657;52.022;5.534;2023-05-07T04:05:33;10.77;;;9.68;;
65045;SDS011;54657;52.022;5.534;2023-05-07T04:07:59;10.80;;;9.75;;
65045;SDS011;54657;52.022;5.534;2023-05-07T04:10:25;10.48;;;9.48;;
65045;SDS011;54657;52.022;5.534;2023-05-07T04:12:51;10.95;;;9.95;;
65045;SDS011;54657;52.022;5.534;2023-05-07T04:15:16;10.07;;;9.07;;
65045;SDS011;54657;52.022;5.534;2023-05-07T04:17:42;10.00;;;9.10;;
65045;SDS011;54657;52.022;5.534;2023-05-07T04:20:13;11.45;;;9.68;;
65045;SDS011;54657;52.022;5.534;2023-05-07T04:22:40;10.98;;;9.38;;
65045;SDS011;54657;52.022;5.534;2023-05-07T04:25:06;10.98;;;9.88;;
65045;SDS011;54657;52.022;5.534;2023-05-07T04:27:34;10.25;;;9.25;;
65045;SDS011;54657;52.022;5.534;2023-05-07T04:29:59;10.80;;;9.70;;
65045;SDS011;54657;52.022;5.534;2023-05-07T04:32:25;9.95;;;9.05;;
65045;SDS011;54657;52.022;5.534;2023-05-07T04:34:51;9.93;;;9.00;;
65045;SDS011;54657;52.022;5.534;2023-05-07T04:37:17;10.05;;;9.15;;
65045;SDS011;54657;52.022;5.534;2023-05-07T04:39:42;10.82;;;9.73;;
65045;SDS011;54657;52.022;5.534;2023-05-07T04:42:08;10.80;;;9.73;;
65045;SDS011;54657;52.022;5.534;2023-05-07T04:44:34;10.55;;;9.45;;
65045;SDS011;54657;52.022;5.534;2023-05-07T04:47:01;10.32;;;9.32;;
65045;SDS011;54657;52.022;5.534;2023-05-07T04:49:27;12.27;;;10.35;;
65045;SDS011;54657;52.022;5.534;2023-05-07T04:51:53;11.27;;;10.10;;
65045;SDS011;54657;52.022;5.534;2023-05-07T04:54:18;9.95;;;8.95;;
65045;SDS011;54657;52.022;5.534;2023-05-07T04:56:44;12.20;;;10.23;;
65045;SDS011;54657;52.022;5.534;2023-05-07T04:59:09;10.48;;;9.45;;
65045;SDS011;54657;52.022;5.534;2023-05-07T05:01:35;12.35;;;9.32;;
65045;SDS011;54657;52.022;5.534;2023-05-07T05:04:00;10.63;;;9.52;;
65045;SDS011;54657;52.022;5.534;2023-05-07T05:06:26;10.30;;;9.25;;
65045;SDS011;54657;52.022;5.534;2023-05-07T05:08:51;10.95;;;9.90;;
65045;SDS011;54657;52.022;5.534;2023-05-07T05:11:17;13.02;;;10.10;;
65045;SDS011;54657;52.022;5.534;2023-05-07T05:13:43;11.65;;;10.48;;
65045;SDS011;54657;52.022;5.534;2023-05-07T05:16:08;11.30;;;10.07;;
65045;SDS011;54657;52.022;5.534;2023-05-07T05:18:34;11.40;;;10.23;;
65045;SDS011;54657;52.022;5.534;2023-05-07T05:21:00;13.65;;;9.93;;
65045;SDS011;54657;52.022;5.534;2023-05-07T05:23:25;11.38;;;10.20;;
65045;SDS011;54657;52.022;5.534;2023-05-07T05:25:55;11.32;;;9.70;;
65045;SDS011;54657;52.022;5.534;2023-05-07T05:28:22;12.57;;;9.85;;
65045;SDS011;54657;52.022;5.534;2023-05-07T05:30:48;11.82;;;10.00;;
65045;SDS011;54657;52.022;5.534;2023-05-07T05:33:13;13.05;;;10.32;;
65045;SDS011;54657;52.022;5.534;2023-05-07T05:35:39;11.57;;;9.40;;
65045;SDS011;54657;52.022;5.534;2023-05-07T05:38:04;11.82;;;9.93;;
65045;SDS011;54657;52.022;5.534;2023-05-07T05:40:30;10.48;;;9.35;;
65045;SDS011;54657;52.022;5.534;2023-05-07T05:42:55;10.20;;;9.20;;
65045;SDS011;54657;52.022;5.534;2023-05-07T05:45:21;12.48;;;9.77;;
65045;SDS011;54657;52.022;5.534;2023-05-07T05:47:46;11.60;;;10.13;;
65045;SDS011;54657;52.022;5.534;2023-05-07T05:50:12;11.15;;;9.88;;
65045;SDS011;54657;52.022;5.534;2023-05-07T05:52:37;10.88;;;9.77;;
65045;SDS011;54657;52.022;5.534;2023-05-07T05:55:03;11.27;;;10.07;;
65045;SDS011;54657;52.022;5.534;2023-05-07T05:57:29;11.98;;;10.77;;
65045;SDS011;54657;52.022;5.534;2023-05-07T05:59:55;13.52;;;10.15;;
65045;SDS011;54657;52.022;5.534;2023-05-07T06:02:21;12.38;;;10.50;;
65045;SDS011;54657;52.022;5.534;2023-05-07T06:04:46;10.43;;;9.43;;
65045;SDS011;54657;52.022;5.534;2023-05-07T06:07:12;11.32;;;10.10;;
65045;SDS011;54657;52.022;5.534;2023-05-07T06:09:37;11.98;;;10.57;;
65045;SDS011;54657;52.022;5.534;2023-05-07T06:12:03;12.45;;;10.70;;
65045;SDS011;54657;52.022;5.534;2023-05-07T06:14:28;13.25;;;10.70;;
65045;SDS011;54657;52.022;5.534;2023-05-07T06:16:54;11.85;;;10.65;;
65045;SDS011;54657;52.022;5.534;2023-05-07T06:19:20;11.45;;;10.30;;
65045;SDS011;54657;52.022;5.534;2023-05-07T06:21:48;11.05;;;9.95;;
65045;SDS011;54657;52.022;5.534;2023-05-07T06:24:14;12.30;;;11.05;;
65045;SDS011;54657;52.022;5.534;2023-05-07T06:26:40;11.40;;;10.30;;
65045;SDS011;54657;52.022;5.534;2023-05-07T06:29:05;11.55;;;10.25;;
65045;SDS011;54657;52.022;5.534;2023-05-07T06:31:31;12.88;;;10.68;;
65045;SDS011;54657;52.022;5.534;2023-05-07T06:33:57;11.85;;;10.63;;
65045;SDS011;54657;52.022;5.534;2023-05-07T06:36:23;12.00;;;10.77;;
65045;SDS011;54657;52.022;5.534;2023-05-07T06:38:49;12.30;;;11.00;;
65045;SDS011;54657;52.022;5.534;2023-05-07T06:41:14;11.40;;;10.20;;
65045;SDS011;54657;52.022;5.534;2023-05-07T06:43:40;12.73;;;11.45;;
65045;SDS011;54657;52.022;5.534;2023-05-07T06:46:06;11.52;;;10.30;;
65045;SDS011;54657;52.022;5.534;2023-05-07T06:48:31;13.57;;;10.75;;
65045;SDS011;54657;52.022;5.534;2023-05-07T06:50:57;12.02;;;10.80;;
65045;SDS011;54657;52.022;5.534;2023-05-07T06:53:23;11.90;;;10.27;;
65045;SDS011;54657;52.022;5.534;2023-05-07T06:55:49;12.23;;;10.88;;
65045;SDS011;54657;52.022;5.534;2023-05-07T06:58:15;14.02;;;11.05;;
65045;SDS011;54657;52.022;5.534;2023-05-07T07:00:40;12.38;;;10.73;;
65045;SDS011;54657;52.022;5.534;2023-05-07T07:03:06;12.20;;;10.88;;
65045;SDS011;54657;52.022;5.534;2023-05-07T07:05:32;12.45;;;11.13;;
65045;SDS011;54657;52.022;5.534;2023-05-07T07:07:57;14.02;;;11.48;;
65045;SDS011;54657;52.022;5.534;2023-05-07T07:10:23;12.00;;;10.80;;
65045;SDS011;54657;52.022;5.534;2023-05-07T07:12:49;13.63;;;12.25;;
65045;SDS011;54657;52.022;5.534;2023-05-07T07:15:15;12.52;;;11.20;;
65045;SDS011;54657;52.022;5.534;2023-05-07T07:17:41;11.65;;;10.48;;
65045;SDS011;54657;52.022;5.534;2023-05-07T07:20:06;13.13;;;11.20;;
65045;SDS011;54657;52.022;5.534;2023-05-07T07:22:32;12.77;;;11.18;;
65045;SDS011;54657;52.022;5.534;2023-05-07T07:24:58;11.93;;;10.63;;
65045;SDS011;54657;52.022;5.534;2023-05-07T07:27:23;11.48;;;10.38;;
65045;SDS011;54657;52.022;5.534;2023-05-07T07:29:49;12.40;;;10.73;;
65045;SDS011;54657;52.022;5.534;2023-05-07T07:32:15;11.50;;;10.35;;
65045;SDS011;54657;52.022;5.534;2023-05-07T07:34:40;12.73;;;11.05;;
65045;SDS011;54657;52.022;5.534;2023-05-07T07:37:06;12.88;;;11.00;;
65045;SDS011;54657;52.022;5.534;2023-05-07T07:39:32;13.48;;;10.80;;
65045;SDS011;54657;52.022;5.534;2023-05-07T07:41:58;12.52;;;11.25;;
65045;SDS011;54657;52.022;5.534;2023-05-07T07:44:23;11.80;;;10.70;;
65045;SDS011;54657;52.022;5.534;2023-05-07T07:46:49;12.10;;;10.82;;
65045;SDS011;54657;52.022;5.534;2023-05-07T07:49:15;13.52;;;10.82;;
65045;SDS011;54657;52.022;5.534;2023-05-07T07:51:41;12.20;;;11.10;;
65045;SDS011;54657;52.022;5.534;2023-05-07T07:54:08;11.90;;;10.82;;
65045;SDS011;54657;52.022;5.534;2023-05-07T07:56:33;14.10;;;10.75;;
65045;SDS011;54657;52.022;5.534;2023-05-07T07:58:59;11.65;;;10.55;;
65045;SDS011;54657;52.022;5.534;2023-05-07T08:01:25;15.23;;;11.43;;
65045;SDS011;54657;52.022;5.534;2023-05-07T08:03:51;12.25;;;10.32;;
65045;SDS011;54657;52.022;5.534;2023-05-07T08:06:16;11.45;;;10.25;;
65045;SDS011;54657;52.022;5.534;2023-05-07T08:08:42;12.70;;;11.50;;
65045;SDS011;54657;52.022;5.534;2023-05-07T08:11:08;13.02;;;11.73;;
65045;SDS011;54657;52.022;5.534;2023-05-07T08:13:33;12.73;;;11.35;;
65045;SDS011;54657;52.022;5.534;2023-05-07T08:15:59;12.23;;;11.00;;
65045;SDS011;54657;52.022;5.534;2023-05-07T08:18:25;13.45;;;11.20;;
65045;SDS011;54657;52.022;5.534;2023-05-07T08:20:53;12.60;;;11.30;;
65045;SDS011;54657;52.022;5.534;2023-05-07T08:23:18;12.45;;;11.15;;
65045;SDS011;54657;52.022;5.534;2023-05-07T08:25:44;13.20;;;11.15;;
65045;SDS011;54657;52.022;5.534;2023-05-07T08:28:10;13.30;;;11.55;;
65045;SDS011;54657;52.022;5.534;2023-05-07T08:30:35;12.90;;;11.65;;
65045;SDS011;54657;52.022;5.534;2023-05-07T08:33:01;14.63;;;11.30;;
65045;SDS011;54657;52.022;5.534;2023-05-07T08:35:27;13.57;;;12.07;;
65045;SDS011;54657;52.022;5.534;2023-05-07T08:37:53;12.57;;;11.30;;
65045;SDS011;54657;52.022;5.534;2023-05-07T08:40:19;13.95;;;11.57;;
65045;SDS011;54657;52.022;5.534;2023-05-07T08:42:45;12.27;;;10.73;;
65045;SDS011;54657;52.022;5.534;2023-05-07T08:45:13;12.93;;;11.55;;
65045;SDS011;54657;52.022;5.534;2023-05-07T08:47:42;12.98;;;11.55;;
65045;SDS011;54657;52.022;5.534;2023-05-07T08:50:12;12.43;;;11.10;;
65045;SDS011;54657;52.022;5.534;2023-05-07T08:52:41;13.85;;;11.75;;
65045;SDS011;54657;52.022;5.534;2023-05-07T08:55:08;13.48;;;11.98;;
65045;SDS011;54657;52.022;5.534;2023-05-07T08:57:34;14.13;;;11.55;;
65045;SDS011;54657;52.022;5.534;2023-05-07T09:00:01;12.65;;;11.50;;
65045;SDS011;54657;52.022;5.534;2023-05-07T09:02:28;14.48;;;12.70;;
65045;SDS011;54657;52.022;5.534;2023-05-07T09:04:54;12.88;;;11.57;;
65045;SDS011;54657;52.022;5.534;2023-05-07T09:07:20;12.82;;;11.52;;
65045;SDS011;54657;52.022;5.534;2023-05-07T09:09:46;13.40;;;11.57;;
65045;SDS011;54657;52.022;5.534;2023-05-07T09:12:11;13.35;;;11.25;;
65045;SDS011;54657;52.022;5.534;2023-05-07T09:14:37;12.82;;;11.50;;
65045;SDS011;54657;52.022;5.534;2023-05-07T09:17:04;13.30;;;11.90;;
65045;SDS011;54657;52.022;5.534;2023-05-07T09:19:30;13.88;;;12.00;;
65045;SDS011;54657;52.022;5.534;2023-05-07T09:21:59;17.50;;;13.68;;
65045;SDS011;54657;52.022;5.534;2023-05-07T09:24:26;14.50;;;12.77;;
65045;SDS011;54657;52.022;5.534;2023-05-07T09:26:53;13.68;;;12.15;;
65045;SDS011;54657;52.022;5.534;2023-05-07T09:29:20;14.18;;;12.60;;
65045;SDS011;54657;52.022;5.534;2023-05-07T09:31:46;13.88;;;12.40;;
65045;SDS011;54657;52.022;5.534;2023-05-07T09:34:11;13.68;;;11.95;;
65045;SDS011;54657;52.022;5.534;2023-05-07T09:36:37;13.73;;;12.35;;
65045;SDS011;54657;52.022;5.534;2023-05-07T09:39:02;13.88;;;12.00;;
65045;SDS011;54657;52.022;5.534;2023-05-07T09:41:30;14.07;;;11.82;;
65045;SDS011;54657;52.022;5.534;2023-05-07T09:43:57;15.70;;;12.02;;
65045;SDS011;54657;52.022;5.534;2023-05-07T09:46:27;15.90;;;11.25;;
65045;SDS011;54657;52.022;5.534;2023-05-07T09:48:56;13.32;;;11.10;;
65045;SDS011;54657;52.022;5.534;2023-05-07T09:54:15;14.15;;;12.05;;
65045;SDS011;54657;52.022;5.534;2023-05-07T09:56:50;14.07;;;12.52;;
65045;SDS011;54657;52.022;5.534;2023-05-07T09:59:17;16.08;;;12.07;;
65045;SDS011;54657;52.022;5.534;2023-05-07T10:01:45;14.85;;;12.27;;
65045;SDS011;54657;52.022;5.534;2023-05-07T10:04:11;15.52;;;12.10;;
65045;SDS011;54657;52.022;5.534;2023-05-07T10:06:37;16.48;;;11.75;;
65045;SDS011;54657;52.022;5.534;2023-05-07T10:09:03;13.40;;;12.00;;
65045;SDS011;54657;52.022;5.534;2023-05-07T10:11:33;14.57;;;11.50;;
65045;SDS011;54657;52.022;5.534;2023-05-07T10:14:00;14.77;;;12.13;;
65045;SDS011;54657;52.022;5.534;2023-05-07T10:16:27;13.55;;;11.32;;
65045;SDS011;54657;52.022;5.534;2023-05-07T10:18:57;14.40;;;10.98;;
65045;SDS011;54657;52.022;5.534;2023-05-07T10:21:24;12.57;;;11.27;;
65045;SDS011;54657;52.022;5.534;2023-05-07T10:23:59;11.73;;;9.93;;
65045;SDS011;54657;52.022;5.534;2023-05-07T10:26:28;13.23;;;9.40;;
65045;SDS011;54657;52.022;5.534;2023-05-07T10:28:58;11.07;;;9.40;;
65045;SDS011;54657;52.022;5.534;2023-05-07T10:34:09;9.95;;;8.95;;
65045;SDS011;54657;52.022;5.534;2023-05-07T10:36:38;11.60;;;8.95;;
65045;SDS011;54657;52.022;5.534;2023-05-07T10:39:04;9.15;;;7.75;;
65045;SDS011;54657;52.022;5.534;2023-05-07T10:41:31;8.77;;;7.47;;
65045;SDS011;54657;52.022;5.534;2023-05-07T10:43:57;8.27;;;6.93;;
65045;SDS011;54657;52.022;5.534;2023-05-07T10:46:26;8.60;;;7.43;;
65045;SDS011;54657;52.022;5.534;2023-05-07T10:51:30;9.45;;;7.40;;
65045;SDS011;54657;52.022;5.534;2023-05-07T10:56:35;8.48;;;6.95;;
65045;SDS011;54657;52.022;5.534;2023-05-07T11:02:02;7.85;;;6.57;;
65045;SDS011;54657;52.022;5.534;2023-05-07T11:04:29;9.45;;;7.07;;
65045;SDS011;54657;52.022;5.534;2023-05-07T11:10:04;8.30;;;6.00;;
65045;SDS011;54657;52.022;5.534;2023-05-07T11:15:01;5.93;;;4.63;;
65045;SDS011;54657;52.022;5.534;2023-05-07T11:17:31;7.43;;;5.18;;
65045;SDS011;54657;52.022;5.534;2023-05-07T11:19:59;6.13;;;5.10;;
65045;SDS011;54657;52.022;5.534;2023-05-07T11:22:36;7.80;;;5.45;;
65045;SDS011;54657;52.022;5.534;2023-05-07T11:25:05;7.93;;;5.30;;
65045;SDS011;54657;52.022;5.534;2023-05-07T11:27:31;8.68;;;5.15;;
65045;SDS011;54657;52.022;5.534;2023-05-07T11:29:58;6.35;;;5.10;;
65045;SDS011;54657;52.022;5.534;2023-05-07T11:32:24;8.43;;;5.80;;
65045;SDS011;54657;52.022;5.534;2023-05-07T11:34:51;5.43;;;4.88;;
65045;SDS011;54657;52.022;5.534;2023-05-07T11:37:17;5.72;;;4.28;;
65045;SDS011;54657;52.022;5.534;2023-05-07T11:39:44;9.57;;;5.43;;
65045;SDS011;54657;52.022;5.534;2023-05-07T11:44:55;5.30;;;4.80;;
65045;SDS011;54657;52.022;5.534;2023-05-07T11:47:20;6.90;;;5.10;;
65045;SDS011;54657;52.022;5.534;2023-05-07T11:49:47;7.45;;;4.80;;
65045;SDS011;54657;52.022;5.534;2023-05-07T11:52:14;6.25;;;4.57;;
65045;SDS011;54657;52.022;5.534;2023-05-07T11:54:40;5.85;;;4.78;;
65045;SDS011;54657;52.022;5.534;2023-05-07T11:57:05;8.50;;;4.65;;
65045;SDS011;54657;52.022;5.534;2023-05-07T11:59:41;6.60;;;4.60;;
65045;SDS011;54657;52.022;5.534;2023-05-07T12:02:09;6.15;;;4.97;;
65045;SDS011;54657;52.022;5.534;2023-05-07T12:04:35;6.60;;;4.65;;
65045;SDS011;54657;52.022;5.534;2023-05-07T12:07:01;8.57;;;4.93;;
65045;SDS011;54657;52.022;5.534;2023-05-07T12:09:26;5.10;;;4.60;;
65045;SDS011;54657;52.022;5.534;2023-05-07T12:11:52;6.10;;;4.85;;
65045;SDS011;54657;52.022;5.534;2023-05-07T12:14:18;6.38;;;5.22;;
65045;SDS011;54657;52.022;5.534;2023-05-07T12:16:44;6.95;;;5.28;;
65045;SDS011;54657;52.022;5.534;2023-05-07T12:19:10;8.25;;;6.00;;
65045;SDS011;54657;52.022;5.534;2023-05-07T12:21:37;6.57;;;5.22;;
65045;SDS011;54657;52.022;5.534;2023-05-07T12:24:04;6.25;;;5.65;;
65045;SDS011;54657;52.022;5.534;2023-05-07T12:26:30;9.18;;;5.70;;
65045;SDS011;54657;52.022;5.534;2023-05-07T12:28:57;5.93;;;5.32;;
65045;SDS011;54657;52.022;5.534;2023-05-07T12:31:23;5.80;;;5.13;;
65045;SDS011;54657;52.022;5.534;2023-05-07T12:33:51;6.13;;;5.25;;
65045;SDS011;54657;52.022;5.534;2023-05-07T12:36:16;6.30;;;5.60;;
65045;SDS011;54657;52.022;5.534;2023-05-07T12:38:42;6.28;;;5.68;;
65045;SDS011;54657;52.022;5.534;2023-05-07T12:41:08;7.95;;;7.00;;
65045;SDS011;54657;52.022;5.534;2023-05-07T12:43:35;7.38;;;6.40;;
65045;SDS011;54657;52.022;5.534;2023-05-07T12:46:02;8.75;;;6.78;;
65045;SDS011;54657;52.022;5.534;2023-05-07T12:48:29;9.45;;;6.85;;
65045;SDS011;54657;52.022;5.534;2023-05-07T12:50:56;8.02;;;6.90;;
65045;SDS011;54657;52.022;5.534;2023-05-07T12:53:24;7.53;;;6.72;;
65045;SDS011;54657;52.022;5.534;2023-05-07T12:55:51;6.72;;;6.13;;
65045;SDS011;54657;52.022;5.534;2023-05-07T13:00:52;6.53;;;5.57;;
65045;SDS011;54657;52.022;5.534;2023-05-07T13:03:21;4.82;;;3.65;;
65045;SDS011;54657;52.022;5.534;2023-05-07T13:05:49;3.53;;;2.35;;
65045;SDS011;54657;52.022;5.534;2023-05-07T13:08:31;4.65;;;2.80;;
65045;SDS011;54657;52.022;5.534;2023-05-07T13:10:58;6.05;;;3.20;;
65045;SDS011;54657;52.022;5.534;2023-05-07T13:13:25;7.13;;;3.55;;
65045;SDS011;54657;52.022;5.534;2023-05-07T13:15:51;5.47;;;3.35;;
65045;SDS011;54657;52.022;5.534;2023-05-07T13:18:16;6.15;;;2.90;;
65045;SDS011;54657;52.022;5.534;2023-05-07T13:20:42;6.88;;;2.72;;
65045;SDS011;54657;52.022;5.534;2023-05-07T13:23:08;4.40;;;2.95;;
65045;SDS011;54657;52.022;5.534;2023-05-07T13:25:33;6.15;;;4.78;;
65045;SDS011;54657;52.022;5.534;2023-05-07T13:27:59;9.93;;;8.88;;
65045;SDS011;54657;52.022;5.534;2023-05-07T13:30:25;5.22;;;4.72;;
65045;SDS011;54657;52.022;5.534;2023-05-07T13:32:51;10.88;;;9.75;;
65045;SDS011;54657;52.022;5.534;2023-05-07T13:35:18;12.80;;;11.30;;
65045;SDS011;54657;52.022;5.534;2023-05-07T13:37:44;13.32;;;11.93;;
65045;SDS011;54657;52.022;5.534;2023-05-07T13:40:09;13.80;;;12.43;;
65045;SDS011;54657;52.022;5.534;2023-05-07T13:42:35;14.57;;;13.05;;
65045;SDS011;54657;52.022;5.534;2023-05-07T13:45:01;15.05;;;13.63;;
65045;SDS011;54657;52.022;5.534;2023-05-07T13:47:30;14.07;;;12.73;;
65045;SDS011;54657;52.022;5.534;2023-05-07T13:49:56;16.10;;;13.13;;
65045;SDS011;54657;52.022;5.534;2023-05-07T13:52:21;14.13;;;12.65;;
65045;SDS011;54657;52.022;5.534;2023-05-07T13:54:47;15.32;;;12.95;;
65045;SDS011;54657;52.022;5.534;2023-05-07T13:57:12;14.02;;;12.63;;
65045;SDS011;54657;52.022;5.534;2023-05-07T13:59:38;15.20;;;13.60;;
65045;SDS011;54657;52.022;5.534;2023-05-07T14:02:03;13.80;;;12.32;;
65045;SDS011;54657;52.022;5.534;2023-05-07T14:04:30;14.55;;;13.07;;
65045;SDS011;54657;52.022;5.534;2023-05-07T14:06:55;17.25;;;12.52;;
65045;SDS011;54657;52.022;5.534;2023-05-07T14:09:21;16.10;;;13.10;;
65045;SDS011;54657;52.022;5.534;2023-05-07T14:11:46;12.88;;;11.57;;
65045;SDS011;54657;52.022;5.534;2023-05-07T14:14:16;12.23;;;11.02;;
65045;SDS011;54657;52.022;5.534;2023-05-07T14:16:44;11.73;;;10.52;;
65045;SDS011;54657;52.022;5.534;2023-05-07T14:19:10;11.82;;;10.63;;
65045;SDS011;54657;52.022;5.534;2023-05-07T14:21:39;11.00;;;9.90;;
65045;SDS011;54657;52.022;5.534;2023-05-07T14:24:06;11.75;;;10.57;;
65045;SDS011;54657;52.022;5.534;2023-05-07T14:26:32;11.43;;;10.27;;
65045;SDS011;54657;52.022;5.534;2023-05-07T14:28:58;12.43;;;11.23;;
65045;SDS011;54657;52.022;5.534;2023-05-07T14:31:24;11.68;;;10.48;;
65045;SDS011;54657;52.022;5.534;2023-05-07T14:33:49;13.18;;;10.40;;
65045;SDS011;54657;52.022;5.534;2023-05-07T14:36:15;11.50;;;10.50;;
65045;SDS011;54657;52.022;5.534;2023-05-07T14:38:42;13.40;;;11.00;;
65045;SDS011;54657;52.022;5.534;2023-05-07T14:41:08;13.80;;;11.70;;
65045;SDS011;54657;52.022;5.534;2023-05-07T14:43:33;13.70;;;11.82;;
65045;SDS011;54657;52.022;5.534;2023-05-07T14:45:59;14.70;;;11.80;;
65045;SDS011;54657;52.022;5.534;2023-05-07T14:48:24;14.18;;;12.10;;
65045;SDS011;54657;52.022;5.534;2023-05-07T14:50:50;12.77;;;11.48;;
65045;SDS011;54657;52.022;5.534;2023-05-07T14:53:15;13.52;;;12.32;;